Time;durP1;ratioP1;P1;durP2;ratioP2;P2;SDS_P1;SDS_P2;PMS_P1;PMS_P2;Temp;Humidity;BMP_temperature;BMP_pressure;BME280_temperature;BME280_humidity;BME280_pressure;Samples;Min_cycle;Max_cycle;Signal;HPM_P1;HPM_P2
2022/04/01 00:00:46;;;;;;;21.52;12.93;;;;;;;3.70;81.40;99607.53;5073917;28;20111;-66
2022/04/01 00:03:12;;;;;;;19.80;12.23;;;;;;;3.71;80.43;99618.84;5072058;28;20047;-66
2022/04/01 00:05:40;;;;;;;20.50;11.52;;;;;;;3.59;80.19;99612.91;5074132;28;20048;-65
2022/04/01 00:08:08;;;;;;;20.27;12.35;;;;;;;3.55;80.80;99622.03;5057357;28;20068;-65
2022/04/01 00:10:40;;;;;;;18.80;12.02;;;;;;;3.71;81.16;99621.47;5075184;28;20094;-65
2022/04/01 00:13:07;;;;;;;22.15;12.35;;;;;;;3.70;82.05;99625.09;5073872;28;20048;-65
2022/04/01 00:15:34;;;;;;;20.70;12.60;;;;;;;3.63;81.33;99630.03;5056972;28;20048;-65
2022/04/01 00:18:02;;;;;;;21.33;12.82;;;;;;;3.63;81.55;99624.78;5073533;28;20037;-65
2022/04/01 00:20:30;;;;;;;19.23;12.05;;;;;;;3.60;81.70;99635.53;5073779;28;20075;-67
2022/04/01 00:22:57;;;;;;;18.90;12.35;;;;;;;3.54;81.33;99633.47;5073861;28;20041;-65
2022/04/01 00:25:24;;;;;;;19.48;11.60;;;;;;;3.51;80.52;99631.13;5057255;28;20097;-65
2022/04/01 00:27:52;;;;;;;19.33;12.18;;;;;;;3.53;80.93;99634.44;5073597;28;20048;-65
2022/04/01 00:30:19;;;;;;;20.58;13.05;;;;;;;3.45;80.92;99629.88;5054673;28;20044;-65
2022/04/01 00:32:46;;;;;;;20.90;13.82;;;;;;;3.60;81.16;99639.03;5090303;28;20482;-65
2022/04/01 00:35:14;;;;;;;20.92;13.50;;;;;;;3.59;80.59;99636.53;5072719;28;20090;-67
2022/04/01 00:37:42;;;;;;;22.60;12.13;;;;;;;3.55;79.94;99635.16;5058399;28;20044;-67
2022/04/01 00:40:12;;;;;;;20.08;12.45;;;;;;;3.53;79.37;99634.44;5045989;28;20090;-67
2022/04/01 00:42:41;;;;;;;20.20;13.20;;;;;;;3.53;80.04;99637.91;5061060;28;20424;-66
2022/04/01 00:45:10;;;;;;;21.85;12.50;;;;;;;3.42;80.20;99646.72;5089466;28;20052;-66
2022/04/01 00:47:37;;;;;;;19.75;12.45;;;;;;;3.40;80.92;99651.25;5093263;28;20123;-67
2022/04/01 00:50:05;;;;;;;20.27;12.05;;;;;;;3.41;80.87;99647.66;5094574;28;20047;-67
2022/04/01 00:52:33;;;;;;;19.40;12.32;;;;;;;3.27;80.57;99650.66;5085324;28;20051;-67
2022/04/01 00:55:01;;;;;;;21.25;12.77;;;;;;;3.27;81.09;99648.03;5060481;28;20067;-66
2022/04/01 00:57:29;;;;;;;19.38;11.75;;;;;;;3.37;79.87;99650.69;5076361;28;20086;-67
2022/04/01 00:59:57;;;;;;;21.23;12.30;;;;;;;3.31;79.69;99654.69;5092747;28;20036;-67
2022/04/01 01:02:25;;;;;;;21.30;12.25;;;;;;;3.21;80.00;99649.41;5060392;28;20123;-66
2022/04/01 01:04:52;;;;;;;21.50;13.10;;;;;;;3.26;80.71;99660.31;5091305;28;20066;-66
2022/04/01 01:07:19;;;;;;;20.75;12.80;;;;;;;3.47;80.44;99659.41;5092811;28;20043;-66
2022/04/01 01:09:45;;;;;;;20.90;12.52;;;;;;;3.28;79.87;99662.00;5093239;28;20090;-66
2022/04/01 01:12:13;;;;;;;25.17;13.55;;;;;;;3.08;80.62;99660.13;5060030;28;20048;-67
2022/04/01 01:14:41;;;;;;;22.52;14.10;;;;;;;3.32;81.25;99652.88;5092938;28;20052;-66
2022/04/01 01:17:12;;;;;;;21.75;13.32;;;;;;;3.38;80.64;99668.06;5092618;28;20040;-67
2022/04/01 01:19:39;;;;;;;24.02;12.88;;;;;;;3.28;79.67;99657.56;5042930;28;20040;-67
2022/04/01 01:22:08;;;;;;;20.67;12.77;;;;;;;3.23;80.29;99665.00;5092677;28;20048;-66
2022/04/01 01:24:42;;;;;;;21.27;13.07;;;;;;;3.36;80.47;99664.75;5094033;28;20040;-66
2022/04/01 01:27:10;;;;;;;18.65;12.10;;;;;;;3.34;78.38;99657.03;5076040;28;20048;-66
2022/04/01 01:29:40;;;;;;;25.05;13.20;;;;;;;3.39;78.96;99664.50;5076141;28;20097;-66
2022/04/01 01:32:10;;;;;;;20.10;12.45;;;;;;;3.23;79.36;99662.38;5072246;28;20046;-66
2022/04/01 01:34:40;;;;;;;20.35;12.48;;;;;;;3.26;78.66;99664.75;5054041;28;20492;-66
2022/04/01 01:37:10;;;;;;;19.50;11.38;;;;;;;3.15;79.25;99659.59;5073301;28;20037;-67
2022/04/01 01:39:37;;;;;;;20.08;11.80;;;;;;;3.21;79.02;99657.25;5073438;28;20046;-66
2022/04/01 01:42:05;;;;;;;20.20;11.45;;;;;;;3.04;78.58;99660.53;5073316;28;20504;-66
2022/04/01 01:44:33;;;;;;;21.33;12.40;;;;;;;3.12;80.00;99665.94;5073039;28;20079;-66
2022/04/01 01:47:00;;;;;;;18.05;11.50;;;;;;;2.96;78.55;99666.41;5073015;28;20493;-66
2022/04/01 01:49:27;;;;;;;19.52;11.55;;;;;;;3.02;78.68;99665.91;5073109;28;20044;-67
2022/04/01 01:54:44;;;;;;;17.92;11.35;;;;;;;2.98;78.78;99674.13;5072160;28;20165;-66
2022/04/01 01:57:14;;;;;;;19.33;11.27;;;;;;;3.12;78.84;99673.78;5073304;28;20040;-66
2022/04/01 01:59:42;;;;;;;22.33;12.10;;;;;;;3.06;78.30;99677.78;5074082;28;20828;-67
2022/04/01 02:02:10;;;;;;;20.13;11.13;;;;;;;3.24;79.60;99683.22;5091888;28;20085;-66
2022/04/01 02:04:39;;;;;;;22.88;11.13;;;;;;;3.07;78.49;99682.06;5075357;28;20093;-66
2022/04/01 02:07:07;;;;;;;18.58;10.68;;;;;;;3.08;77.69;99685.50;5091537;28;20575;-66
2022/04/01 02:09:34;;;;;;;20.20;11.27;;;;;;;3.11;77.93;99681.78;5091848;28;20063;-66
2022/04/01 02:12:01;;;;;;;18.25;10.55;;;;;;;3.02;78.34;99676.38;5092155;28;20127;-67
2022/04/01 02:14:30;;;;;;;17.90;10.88;;;;;;;3.05;78.20;99677.91;5058810;28;20047;-66
2022/04/01 02:16:57;;;;;;;17.40;10.43;;;;;;;3.04;77.98;99676.25;5091830;28;20044;-66
2022/04/01 02:19:24;;;;;;;15.90;9.75;;;;;;;2.84;77.42;99673.53;5091696;28;20052;-67
2022/04/01 02:21:53;;;;;;;18.80;10.05;;;;;;;3.02;77.62;99680.78;5091863;28;20366;-67
2022/04/01 02:24:22;;;;;;;18.10;10.10;;;;;;;2.89;77.24;99681.00;5091866;28;20442;-66
2022/04/01 02:26:50;;;;;;;18.05;11.00;;;;;;;2.97;78.07;99686.41;5075413;28;20070;-66
2022/04/01 02:29:19;;;;;;;18.83;10.23;;;;;;;2.92;77.26;99683.34;5075439;28;20048;-67
2022/04/01 02:32:06;;;;;;;17.83;9.82;;;;;;;2.85;76.10;99690.91;5056867;28;20090;-67
2022/04/01 02:34:53;;;;;;;18.13;10.38;;;;;;;2.87;77.65;99694.25;5087937;28;20044;-66
2022/04/01 02:37:21;;;;;;;18.00;10.05;;;;;;;2.75;77.94;99691.81;5055110;28;20044;-66
2022/04/01 02:39:48;;;;;;;19.20;9.95;;;;;;;2.77;76.99;99705.63;5038314;28;20061;-66
2022/04/01 02:42:15;;;;;;;21.45;11.23;;;;;;;2.81;77.28;99705.22;5059882;28;20051;-66
2022/04/01 02:44:44;;;;;;;18.88;10.68;;;;;;;2.92;78.66;99703.50;5055580;28;20068;-66
2022/04/01 02:47:11;;;;;;;18.50;9.40;;;;;;;2.79;76.70;99704.53;5054618;28;20047;-66
2022/04/01 02:49:38;;;;;;;17.08;9.77;;;;;;;2.68;76.76;99707.22;5066292;28;20455;-67
2022/04/01 02:52:05;;;;;;;17.90;9.60;;;;;;;2.64;77.82;99709.25;5055655;28;20050;-66
2022/04/01 02:54:35;;;;;;;18.15;9.88;;;;;;;2.64;77.16;99711.06;5056628;28;20493;-66
2022/04/01 02:57:03;;;;;;;15.82;8.68;;;;;;;2.66;75.77;99717.81;5039909;28;20048;-67
2022/04/01 02:59:30;;;;;;;17.17;9.60;;;;;;;2.56;76.54;99722.16;5059468;28;20072;-66
2022/04/01 03:01:57;;;;;;;18.60;9.75;;;;;;;2.59;77.96;99726.31;5096303;28;20066;-66
2022/04/01 03:04:42;;;;;;;16.38;10.18;;;;;;;2.58;79.04;99729.88;5096312;28;20040;-66
2022/04/01 03:07:09;;;;;;;18.65;9.25;;;;;;;2.58;76.69;99740.34;5093618;28;20064;-66
2022/04/01 03:09:35;;;;;;;18.85;9.38;;;;;;;2.61;76.06;99743.56;5095442;28;20036;-67
2022/04/01 03:12:07;;;;;;;15.65;9.23;;;;;;;2.57;76.46;99741.34;5096343;28;20043;-66
2022/04/01 03:15:00;;;;;;;19.02;9.50;;;;;;;2.56;76.72;99737.84;5090825;27;20397;-66
2022/04/01 03:17:47;;;;;;;16.85;9.00;;;;;;;2.56;77.27;99742.28;5090456;28;20043;-65
2022/04/01 03:20:29;;;;;;;17.45;9.82;;;;;;;2.60;76.73;99741.06;5089417;28;20040;-66
2022/04/01 03:22:57;;;;;;;17.48;10.48;;;;;;;2.74;76.96;99734.69;5090376;28;20036;-66
2022/04/01 03:25:32;;;;;;;18.35;10.13;;;;;;;2.62;76.66;99747.00;5089403;28;20044;-66
2022/04/01 03:28:14;;;;;;;16.48;10.02;;;;;;;2.81;77.31;99746.31;5090298;28;20124;-66
2022/04/01 03:30:42;;;;;;;19.70;9.85;;;;;;;2.67;76.35;99756.16;5088829;28;20074;-66
2022/04/01 03:33:10;;;;;;;17.23;10.18;;;;;;;2.81;77.32;99757.59;5087115;28;20036;-66
2022/04/01 03:35:38;;;;;;;17.08;9.95;;;;;;;2.73;77.22;99764.44;5090184;28;20090;-66
2022/04/01 03:38:10;;;;;;;18.08;9.30;;;;;;;2.74;75.82;99766.94;5090003;28;20443;-66
2022/04/01 03:40:40;;;;;;;18.75;8.98;;;;;;;2.64;75.75;99768.66;5072339;28;20570;-66
2022/04/01 03:43:08;;;;;;;17.63;9.38;;;;;;;2.58;75.49;99777.84;5088975;28;20055;-65
2022/04/01 03:45:35;;;;;;;18.80;9.80;;;;;;;2.57;75.85;99775.38;5072100;28;20504;-65
2022/04/01 03:48:23;;;;;;;17.20;9.25;;;;;;;2.57;76.63;99776.19;5088867;28;20546;-65
2022/04/01 03:50:56;;;;;;;16.50;9.27;;;;;;;2.60;75.08;99781.19;5088813;28;20049;-66
2022/04/01 03:53:29;;;;;;;15.95;9.52;;;;;;;2.56;75.32;99784.16;5089694;28;20503;-68
2022/04/01 03:56:01;;;;;;;18.13;9.65;;;;;;;2.47;75.20;99796.22;5073474;28;20054;-66
2022/04/01 03:58:49;;;;;;;15.80;9.15;;;;;;;2.50;76.30;99786.31;5089667;28;20397;-67
2022/04/01 04:01:37;;;;;;;16.50;9.35;;;;;;;2.45;75.00;99792.91;5089253;28;20045;-66
2022/04/01 04:04:05;;;;;;;17.40;10.50;;;;;;;2.45;76.87;99798.13;5088533;28;20044;-65
2022/04/01 04:06:35;;;;;;;15.65;9.55;;;;;;;2.50;76.20;99790.75;5087762;28;20523;-66
2022/04/01 04:09:03;;;;;;;18.20;10.38;;;;;;;2.55;77.15;99804.28;5055801;28;20623;-65
2022/04/01 04:11:32;;;;;;;18.23;10.50;;;;;;;2.55;76.63;99801.69;5088407;28;20068;-65
2022/04/01 04:14:11;;;;;;;18.23;10.02;;;;;;;2.64;75.74;99800.91;5088253;28;20092;-66
2022/04/01 04:16:45;;;;;;;15.77;9.35;;;;;;;2.58;75.09;99811.06;5088113;28;20531;-66
2022/04/01 04:22:00;;;;;;;18.15;9.43;;;;;;;2.33;75.34;99809.59;5089967;27;20408;-65
2022/04/01 04:24:36;;;;;;;18.08;9.75;;;;;;;2.45;75.49;99811.22;5089404;28;20101;-66
2022/04/01 04:27:11;;;;;;;16.77;9.85;;;;;;;2.51;75.21;99815.97;5090418;28;20068;-66
2022/04/01 04:30:08;;;;;;;18.45;10.07;;;;;;;2.54;76.40;99814.88;5088271;28;20512;-66
2022/04/01 04:32:55;;;;;;;15.32;8.43;;;;;;;2.52;74.93;99824.66;5102410;28;20041;-66
2022/04/01 04:35:25;;;;;;;14.93;9.25;;;;;;;2.38;75.40;99815.28;5070147;28;20055;-66
2022/04/01 04:37:55;;;;;;;15.70;8.55;;;;;;;2.34;75.24;99819.94;5083742;28;20053;-66
2022/04/01 04:40:23;;;;;;;21.45;10.50;;;;;;;2.53;77.24;99829.78;5068962;28;20045;-66
2022/04/01 04:42:58;;;;;;;16.65;8.90;;;;;;;2.43;75.11;99832.28;5053524;28;20049;-66
2022/04/01 04:45:26;;;;;;;14.88;8.80;;;;;;;2.26;75.41;99830.22;5070234;28;20048;-66
2022/04/01 04:47:57;;;;;;;16.27;9.20;;;;;;;2.35;76.21;99833.84;5069393;28;20044;-66
2022/04/01 04:50:25;;;;;;;14.35;8.45;;;;;;;2.35;75.86;99836.47;5085060;28;20037;-66
2022/04/01 04:52:54;;;;;;;18.02;8.98;;;;;;;2.14;74.90;99839.03;5068105;28;20041;-66
2022/04/01 04:55:23;;;;;;;14.43;8.25;;;;;;;2.15;76.03;99841.53;5051815;28;20079;-66
2022/04/01 04:58:08;;;;;;;16.10;9.35;;;;;;;2.24;77.56;99850.44;5068041;28;20045;-66
2022/04/01 05:00:36;;;;;;;14.57;8.73;;;;;;;2.09;76.44;99849.84;5059449;28;20477;-66
2022/04/01 05:05:58;;;;;;;15.75;7.70;;;;;;;2.28;75.17;99859.72;5090669;27;20385;-66
2022/04/01 05:09:08;;;;;;;16.25;8.13;;;;;;;2.24;76.18;99860.91;5087184;28;20393;-66
2022/04/01 05:12:12;;;;;;;14.90;7.82;;;;;;;2.28;75.72;99868.38;5089912;28;20501;-65
2022/04/01 05:20:20;;;;;;;13.15;8.18;;;;;;;2.38;75.02;99878.13;5090118;27;20352;-66
2022/04/01 05:23:15;;;;;;;12.38;7.15;;;;;;;2.27;74.67;99873.72;5056950;28;20386;-66
2022/04/01 05:25:49;;;;;;;14.70;7.93;;;;;;;2.30;75.83;99876.13;5089309;28;20052;-66
2022/04/01 05:28:44;;;;;;;11.90;6.68;;;;;;;2.40;74.69;99894.53;5090474;28;20119;-66
2022/04/01 05:34:04;;;;;;;14.32;7.88;;;;;;;2.42;76.23;99893.47;5088880;27;20382;-66
2022/04/01 05:36:32;;;;;;;11.15;6.72;;;;;;;2.37;75.18;99900.03;5089183;28;20048;-66
2022/04/01 05:39:01;;;;;;;15.15;7.18;;;;;;;2.46;74.64;99901.91;5089341;28;20048;-66
2022/04/01 05:41:29;;;;;;;12.27;6.68;;;;;;;2.44;74.51;99907.25;5088699;28;20041;-66
2022/04/01 05:43:57;;;;;;;10.77;6.38;;;;;;;2.33;73.80;99907.28;5083683;28;20052;-66
2022/04/01 05:46:29;;;;;;;14.43;6.32;;;;;;;2.24;73.97;99910.63;5088664;28;20048;-66
2022/04/01 05:49:01;;;;;;;13.93;6.93;;;;;;;2.21;74.78;99921.34;5089835;28;20169;-66
2022/04/01 05:51:30;;;;;;;12.48;6.68;;;;;;;2.40;74.96;99921.56;5089736;28;20040;-66
2022/04/01 05:53:58;;;;;;;12.98;6.25;;;;;;;2.06;74.10;99929.44;5083364;28;20409;-66
2022/04/01 05:56:27;;;;;;;11.60;6.60;;;;;;;2.16;74.41;99940.00;5089501;28;20056;-68
2022/04/01 05:58:57;;;;;;;12.68;6.43;;;;;;;2.19;74.07;99938.94;5071858;28;20082;-65
2022/04/01 06:01:41;;;;;;;15.93;7.28;;;;;;;2.16;74.39;99941.78;5071623;28;20068;-66
2022/04/01 06:04:41;;;;;;;13.18;6.95;;;;;;;2.37;75.11;99934.88;5086643;28;20047;-65
2022/04/01 06:07:36;;;;;;;12.88;6.53;;;;;;;2.23;74.07;99945.59;5115361;28;20040;-67
2022/04/01 06:10:09;;;;;;;14.90;6.78;;;;;;;2.27;73.88;99953.09;5070559;28;20121;-65
2022/04/01 06:13:10;;;;;;;13.15;6.70;;;;;;;2.20;74.11;99953.69;5069133;28;20116;-65
2022/04/01 06:16:25;;;;;;;11.18;6.00;;;;;;;2.24;73.24;99960.34;5068263;28;20504;-65
2022/04/01 06:19:34;;;;;;;12.35;6.68;;;;;;;1.92;73.20;99953.19;5069159;28;20505;-65
2022/04/01 06:22:08;;;;;;;13.75;6.93;;;;;;;2.00;73.67;99971.78;5069107;28;20059;-65
2022/04/01 06:25:12;;;;;;;11.32;6.20;;;;;;;2.00;73.08;99968.31;5068701;28;20068;-65
2022/04/01 06:27:46;;;;;;;12.25;6.90;;;;;;;2.02;74.29;99967.25;5051577;28;20044;-65
2022/04/01 06:30:17;;;;;;;14.48;7.13;;;;;;;2.04;72.85;99964.53;5082740;28;20081;-65
2022/04/01 06:35:31;;;;;;;15.52;7.32;;;;;;;2.10;73.34;99980.56;5130061;27;20330;-66
2022/04/01 06:38:05;;;;;;;15.15;7.25;;;;;;;2.13;73.44;99983.88;5131187;27;20057;-66
2022/04/01 06:40:56;;;;;;;13.95;7.53;;;;;;;2.13;72.40;99984.75;5112980;28;20472;-66
2022/04/01 06:43:30;;;;;;;12.65;7.35;;;;;;;2.17;74.56;99993.19;5085445;27;20088;-66
2022/04/01 06:46:17;;;;;;;15.45;7.25;;;;;;;2.18;72.95;99994.84;5147725;27;20458;-65
2022/04/01 06:48:52;;;;;;;11.23;6.53;;;;;;;2.16;71.30;100005.41;5128257;27;20111;-65
2022/04/01 06:51:39;;;;;;;14.05;6.65;;;;;;;2.17;72.15;100011.50;5110551;28;20047;-65
2022/04/01 06:54:26;;;;;;;18.05;7.25;;;;;;;2.20;72.31;100011.25;5120394;27;20506;-65
2022/04/01 06:57:12;;;;;;;13.48;6.70;;;;;;;2.10;71.89;100013.75;5094039;28;20077;-65
2022/04/01 06:59:59;;;;;;;13.32;6.97;;;;;;;2.02;71.79;100013.50;5128156;27;20041;-64
2022/04/01 07:02:26;;;;;;;12.55;6.97;;;;;;;2.13;73.33;100025.75;5138782;27;20039;-66
2022/04/01 07:04:52;;;;;;;15.80;7.13;;;;;;;2.19;71.70;100025.31;5092904;27;20083;-66
2022/04/01 07:07:19;;;;;;;12.55;6.78;;;;;;;2.17;71.30;100029.81;5118653;27;20451;-66
2022/04/01 07:09:46;;;;;;;12.85;5.93;;;;;;;2.33;71.61;100030.31;5142020;27;20456;-66
2022/04/01 07:12:13;;;;;;;15.60;7.43;;;;;;;2.31;72.65;100040.06;5115214;28;20430;-66
2022/04/01 07:14:39;;;;;;;15.23;7.20;;;;;;;2.28;72.67;100040.31;5122318;27;20070;-64
2022/04/01 07:17:06;;;;;;;15.70;7.15;;;;;;;2.26;71.83;100034.34;5135577;27;20472;-65
2022/04/01 07:19:33;;;;;;;12.57;6.28;;;;;;;2.22;72.10;100049.47;5135001;27;20047;-64
2022/04/01 07:22:00;;;;;;;12.80;6.10;;;;;;;2.27;72.32;100049.09;5136453;27;20035;-65
2022/04/01 07:24:29;;;;;;;12.65;6.63;;;;;;;2.16;72.53;100047.28;5136947;27;20442;-65
2022/04/01 07:26:56;;;;;;;15.70;7.30;;;;;;;2.16;73.49;100057.75;5118258;27;20126;-65
2022/04/01 07:29:23;;;;;;;12.52;6.20;;;;;;;2.08;72.37;100057.53;5114235;28;20045;-64
2022/04/01 07:34:41;;;;;;;12.40;5.95;;;;;;;2.11;71.86;100067.72;5143617;27;20113;-65
2022/04/01 07:37:09;;;;;;;14.48;6.38;;;;;;;2.04;72.37;100066.56;5129480;27;20068;-65
2022/04/01 07:39:37;;;;;;;12.88;6.40;;;;;;;2.14;71.31;100072.75;5116027;27;20036;-64
2022/04/01 07:42:05;;;;;;;11.80;6.25;;;;;;;1.97;72.77;100073.19;5125435;27;20863;-65
2022/04/01 07:44:32;;;;;;;14.48;7.15;;;;;;;2.06;73.01;100082.97;5125691;28;21183;-65
2022/04/01 07:47:00;;;;;;;13.40;6.72;;;;;;;2.36;71.79;100081.59;5119040;27;20495;-65
2022/04/01 07:49:28;;;;;;;13.63;6.60;;;;;;;2.30;70.60;100077.66;5125787;27;20124;-65
2022/04/01 07:52:16;;;;;;;13.77;7.05;;;;;;;2.25;72.08;100090.25;5094528;28;20430;-65
2022/04/01 07:54:47;;;;;;;18.55;8.05;;;;;;;2.54;71.96;100101.13;5062521;28;20036;-62
2022/04/01 07:57:15;;;;;;;13.00;6.97;;;;;;;2.17;71.18;100096.06;5115238;28;20051;-65
2022/04/01 07:59:42;;;;;;;13.55;6.90;;;;;;;2.25;71.10;100088.47;5123639;27;20537;-65
2022/04/01 08:02:09;;;;;;;12.13;6.13;;;;;;;2.52;72.02;100100.41;5106902;27;20093;-65
2022/04/01 08:04:36;;;;;;;11.55;5.65;;;;;;;2.27;71.10;100096.19;5115587;27;20061;-65
2022/04/01 08:07:05;;;;;;;11.77;6.55;;;;;;;2.39;71.50;100108.38;5122755;27;20035;-65
2022/04/01 08:09:33;;;;;;;11.27;5.80;;;;;;;2.33;70.80;100113.22;5114648;28;20074;-65
2022/04/01 08:12:01;;;;;;;12.63;6.30;;;;;;;2.46;71.93;100119.22;5129578;27;20043;-65
2022/04/01 08:14:27;;;;;;;16.17;6.28;;;;;;;2.39;70.73;100118.84;5112248;27;20036;-65
2022/04/01 08:16:54;;;;;;;15.70;6.22;;;;;;;2.00;70.68;100130.50;5123316;27;20089;-65
2022/04/01 08:19:22;;;;;;;12.88;6.43;;;;;;;2.14;71.26;100124.25;5100505;28;20119;-66
2022/04/01 08:21:49;;;;;;;14.10;6.75;;;;;;;2.08;71.76;100131.59;5077368;28;20036;-64
2022/04/01 08:24:16;;;;;;;12.15;6.20;;;;;;;2.09;70.57;100135.91;5107963;27;20047;-64
2022/04/01 08:26:43;;;;;;;38.63;6.78;;;;;;;2.06;71.42;100135.31;5116808;27;20088;-64
2022/04/01 08:29:11;;;;;;;14.38;6.78;;;;;;;2.15;72.59;100147.69;5104453;27;20047;-65
2022/04/01 08:31:38;;;;;;;13.70;6.97;;;;;;;2.24;72.43;100143.56;5113692;27;20496;-64
2022/04/01 08:34:05;;;;;;;15.00;7.03;;;;;;;2.29;70.39;100151.88;5113226;27;20048;-65
2022/04/01 08:36:32;;;;;;;15.68;6.82;;;;;;;2.43;71.27;100156.91;5122669;27;20068;-64
2022/04/01 08:38:59;;;;;;;12.65;6.82;;;;;;;2.30;70.74;100156.19;5116950;27;20061;-64
2022/04/01 08:41:26;;;;;;;12.00;6.50;;;;;;;2.18;70.38;100160.53;5104266;27;20097;-64
2022/04/01 08:43:53;;;;;;;12.73;6.20;;;;;;;2.09;71.27;100167.31;5116899;27;20057;-64
2022/04/01 08:46:22;;;;;;;14.48;6.90;;;;;;;2.19;71.11;100164.00;5115342;27;20036;-64
2022/04/01 08:48:50;;;;;;;15.27;7.05;;;;;;;2.14;70.49;100169.56;5100010;28;20059;-64
2022/04/01 08:51:17;;;;;;;12.77;6.30;;;;;;;2.15;69.96;100167.78;5113152;27;20388;-64
2022/04/01 08:53:46;;;;;;;12.80;6.05;;;;;;;2.24;70.18;100180.22;5121585;27;20061;-64
2022/04/01 08:56:17;;;;;;;15.93;6.35;;;;;;;2.27;70.52;100183.44;5118078;27;20066;-64
2022/04/01 08:58:45;;;;;;;12.63;6.00;;;;;;;2.17;69.17;100182.44;5114729;27;20035;-64
2022/04/01 09:01:13;;;;;;;13.82;6.95;;;;;;;2.21;70.40;100186.50;5125721;27;20056;-65
2022/04/01 09:03:42;;;;;;;14.75;6.30;;;;;;;2.11;68.18;100191.56;5114188;27;20126;-64
2022/04/01 09:06:09;;;;;;;13.82;6.10;;;;;;;2.00;69.30;100194.16;5114058;28;20036;-64
2022/04/01 09:08:40;;;;;;;13.38;6.25;;;;;;;2.15;70.78;100196.56;5118165;27;20071;-64
2022/04/01 09:11:10;;;;;;;15.40;6.65;;;;;;;2.35;70.52;100198.56;5093230;27;20154;-64
2022/04/01 09:13:49;;;;;;;17.25;6.97;;;;;;;2.47;69.10;100197.66;5131490;27;20039;-64
2022/04/01 09:16:31;;;;;;;17.77;6.07;;;;;;;2.32;69.40;100196.16;5100427;28;20138;-65
2022/04/01 09:19:02;;;;;;;13.30;6.22;;;;;;;2.21;68.71;100201.38;5107580;28;20082;-65
2022/04/01 09:21:37;;;;;;;12.77;6.20;;;;;;;2.47;69.20;100207.25;5105096;27;20422;-65
2022/04/01 09:24:04;;;;;;;15.30;6.43;;;;;;;2.42;68.54;100212.00;5109815;27;20046;-65
2022/04/01 09:26:37;;;;;;;13.45;5.97;;;;;;;2.32;67.53;100214.47;5097667;28;20047;-65
2022/04/01 09:29:07;;;;;;;15.30;6.30;;;;;;;2.27;68.74;100212.22;5119680;27;20037;-65
2022/04/01 09:31:37;;;;;;;12.13;6.20;;;;;;;2.34;68.37;100228.28;5119204;27;20441;-65
2022/04/01 09:34:06;;;;;;;12.82;6.18;;;;;;;2.27;67.28;100217.47;5116312;27;20039;-65
2022/04/01 09:36:36;;;;;;;14.75;6.35;;;;;;;2.17;68.45;100223.47;5126722;27;20042;-65
2022/04/01 09:39:08;;;;;;;14.00;6.30;;;;;;;2.42;68.95;100222.47;5117792;27;20052;-65
2022/04/01 09:44:19;;;;;;;14.88;6.03;;;;;;;2.55;67.71;100222.41;5094464;27;20412;-64
2022/04/01 09:46:48;;;;;;;15.98;6.32;;;;;;;2.62;67.60;100223.59;5059439;28;20037;-65
2022/04/01 09:49:31;;;;;;;16.25;6.47;;;;;;;2.65;68.28;100229.44;5082289;28;20045;-65
2022/04/01 09:52:00;;;;;;;15.43;5.55;;;;;;;2.63;66.59;100226.13;5073786;28;20111;-65
2022/04/01 09:54:27;;;;;;;14.65;6.18;;;;;;;2.53;66.35;100229.53;5065727;28;20059;-64
2022/04/01 09:56:56;;;;;;;12.55;6.03;;;;;;;2.57;66.06;100236.22;5077707;28;20036;-65
2022/04/01 09:59:24;;;;;;;11.18;5.78;;;;;;;2.52;65.83;100225.25;5076473;28;20047;-65
2022/04/01 10:01:52;;;;;;;12.25;5.78;;;;;;;2.54;67.30;100241.69;5064969;28;20381;-64
2022/04/01 10:04:18;;;;;;;10.32;5.35;;;;;;;2.36;66.63;100233.41;5060794;28;20051;-64
2022/04/01 10:06:46;;;;;;;10.95;5.38;;;;;;;2.41;65.94;100233.91;5048731;28;20044;-65
2022/04/01 10:09:13;;;;;;;12.82;5.40;;;;;;;2.32;66.95;100239.84;5050068;28;20049;-65
2022/04/01 10:11:42;;;;;;;14.52;6.05;;;;;;;2.49;66.74;100248.13;5073958;28;20059;-65
2022/04/01 10:14:13;;;;;;;11.88;6.05;;;;;;;2.56;65.09;100237.16;5044869;28;20232;-65
2022/04/01 10:16:43;;;;;;;15.50;6.32;;;;;;;2.54;65.36;100244.31;5079852;28;20133;-65
2022/04/01 10:19:14;;;;;;;11.27;5.78;;;;;;;2.59;65.97;100245.63;5057823;28;20140;-65
2022/04/01 10:21:43;;;;;;;15.73;7.37;;;;;;;2.55;65.66;100246.81;5061080;28;20083;-65
2022/04/01 10:27:14;;;;;;;12.80;6.22;;;;;;;2.66;64.90;100243.41;5081974;27;20404;-64
2022/04/01 10:29:43;;;;;;;14.73;7.10;;;;;;;2.45;65.58;100251.88;5079576;28;20041;-64
2022/04/01 10:32:28;;;;;;;19.17;6.28;;;;;;;2.48;65.67;100258.69;5079033;28;20125;-64
2022/04/01 10:34:58;;;;;;;10.82;4.47;;;;;;;2.70;63.49;100250.06;5087923;28;20046;-64
2022/04/01 10:37:30;;;;;;;12.23;6.00;;;;;;;2.55;64.36;100253.81;5073565;28;20044;-65
2022/04/01 10:40:05;;;;;;;13.38;6.90;;;;;;;2.46;65.65;100260.59;5081593;28;20133;-65
2022/04/01 10:42:36;;;;;;;14.98;6.97;;;;;;;2.62;66.10;100266.38;5088054;28;20044;-65
2022/04/01 10:45:05;;;;;;;;;;;;;;;2.65;64.04;100263.50;5080344;28;20043;-65
2022/04/01 11:04:42;;;;;;;21.02;6.10;;;;;;;2.49;64.87;100273.44;5059742;28;20039;-64
2022/04/01 11:11:12;;;;;;;12.10;5.57;;;;;;;2.67;63.93;100285.19;5060826;28;20033;-67
2022/04/01 11:13:39;;;;;;;9.82;4.50;;;;;;;2.74;63.28;100287.34;5066696;28;20106;-66
2022/04/01 11:16:14;;;;;;;14.82;6.82;;;;;;;2.58;64.29;100278.00;5052580;28;20045;-67
2022/04/01 11:19:19;;;;;;;15.27;6.90;;;;;;;2.45;64.47;100282.47;5065783;28;20056;-67
2022/04/01 11:21:49;;;;;;;13.38;6.80;;;;;;;2.66;65.52;100285.31;5062498;28;20053;-67
2022/04/01 11:24:41;;;;;;;13.00;7.13;;;;;;;2.74;65.49;100274.25;5044823;28;20041;-67
2022/04/01 11:27:24;;;;;;;14.32;6.53;;;;;;;2.79;65.36;100282.59;5058340;28;20049;-67
2022/04/01 11:30:13;;;;;;;15.85;7.05;;;;;;;2.78;63.94;100294.00;5060506;22;20042;-67
2022/04/01 11:32:57;;;;;;;13.13;6.22;;;;;;;2.83;63.73;100284.03;5043771;28;20119;-68
2022/04/01 11:35:41;;;;;;;12.57;6.35;;;;;;;2.84;62.84;100297.03;5028771;28;20049;-68
2022/04/01 11:38:18;;;;;;;15.60;7.18;;;;;;;2.94;64.52;100293.72;5060346;28;20124;-67
2022/04/01 11:40:54;;;;;;;12.18;6.55;;;;;;;2.87;63.60;100302.03;5040521;28;20124;-67
2022/04/01 11:43:26;;;;;;;11.82;5.80;;;;;;;3.03;62.52;100290.38;5010122;28;20049;-68
2022/04/01 11:46:02;;;;;;;14.10;6.82;;;;;;;2.97;63.92;100294.31;5026581;28;20037;-67
2022/04/01 11:48:32;;;;;;;13.80;6.32;;;;;;;2.86;62.46;100299.53;5046483;28;20383;-67
2022/04/01 11:51:09;;;;;;;12.93;6.57;;;;;;;2.74;63.42;100301.28;5043605;28;20033;-68
2022/04/01 11:53:45;;;;;;;15.32;6.10;;;;;;;2.88;63.49;100308.94;5044529;28;20393;-67
2022/04/01 11:56:14;;;;;;;13.75;6.40;;;;;;;2.77;62.74;100308.91;5043819;28;20091;-67
2022/04/01 11:59:04;;;;;;;11.30;6.15;;;;;;;2.75;64.43;100304.72;5043628;28;20133;-67
2022/04/01 12:01:34;;;;;;;16.02;6.45;;;;;;;3.00;64.29;100301.94;5022714;28;20530;-67
2022/04/01 12:04:09;;;;;;;11.95;6.20;;;;;;;2.75;63.63;100312.56;5032713;28;20044;-67
2022/04/01 12:09:30;;;;;;;12.77;6.65;;;;;;;2.59;65.26;100313.72;5026270;28;20524;-68
2022/04/01 12:11:58;;;;;;;14.18;6.20;;;;;;;2.61;65.06;100318.84;5029399;28;20409;-67
2022/04/01 12:14:25;;;;;;;13.75;7.00;;;;;;;2.61;65.07;100321.47;5015141;28;20056;-67
2022/04/01 12:16:52;;;;;;;15.18;7.20;;;;;;;2.82;66.64;100316.41;5031261;28;20175;-67
2022/04/01 12:19:21;;;;;;;12.82;6.63;;;;;;;3.21;63.89;100317.81;5014600;28;20037;-69
2022/04/01 12:21:49;;;;;;;13.15;6.95;;;;;;;3.02;63.58;100318.38;4996973;28;20049;-67
2022/04/01 12:24:17;;;;;;;12.75;6.20;;;;;;;3.05;64.70;100322.56;5029604;28;20501;-67
2022/04/01 12:26:47;;;;;;;12.70;7.07;;;;;;;3.00;65.11;100325.53;5031198;28;20041;-67
2022/04/01 12:29:19;;;;;;;13.63;6.82;;;;;;;2.82;64.68;100321.66;5013763;28;20044;-68
2022/04/01 12:31:52;;;;;;;15.55;6.82;;;;;;;2.87;65.63;100325.63;5028588;28;20046;-69
2022/04/01 12:34:20;;;;;;;11.65;5.80;;;;;;;2.99;64.24;100336.97;5032576;28;20041;-68
2022/04/01 12:36:52;;;;;;;12.23;5.75;;;;;;;3.00;64.84;100333.41;5012773;28;20072;-67
2022/04/01 12:39:19;;;;;;;13.25;6.50;;;;;;;2.99;65.12;100344.00;5015205;28;20041;-67
2022/04/01 12:41:54;;;;;;;11.82;6.07;;;;;;;3.04;64.05;100342.69;5031723;28;20095;-67